Jeśli jesteś właścicielem tej strony, możesz wyłączyć reklamę poniżej zmieniając pakiet na PRO lub VIP w panelu naszego hostingu już od 4zł!
Strony WWWSerwery VPSDomenyHostingDarmowy Hosting CBA.pl

Raporty najbliższych stacji METAR

 

EPPO - Poznan/Lawica, Poland
Odległość od stacji: Zd 102km
Aktualizacja: 18-02-24 06:30
niewielkie zachmurzenie
niewielkie zachmurzenie
 Wiatr z Pn
Wiatr: Pn 13 km/h
Temperatura: -5°C
Wind Chill: -10°C
Punkt Rosy: -10°C
Wilgotność: 68%
Ciśnienie: 1025 hPa
Zachmurzenie: niewielkie zachmurzenie
Widoczność: 10 km
Szczegóły o zachmurzeniu: niewielkie zachmurzenie 914 m
2018/02/24 05:30 EPPO 240530Z 36007KT 9999 FEW030 M05/M10 Q1025
EPLL - Łódź, Ziemia Łódzka, Polska
Odległość od stacji: ES 127km
Aktualizacja: 18-02-24 06:30
Przeważnie pochmurno
Przeważnie pochmurno
 Wiatr z PnPnZd
Wiatr: PnPnZd 15 km/h
Temperatura: -6°C
Wind Chill: -12°C
Punkt Rosy: -7°C
Wilgotność: 93%
Ciśnienie: 1020 hPa
Zachmurzenie: Przeważnie pochmurno
Widoczność: 10 km
Szczegóły o zachmurzeniu: Przeważnie pochmurno 427 m
2018/02/24 05:30 EPLL 240530Z 33008KT 290V360 9999 BKN014 M06/M07 Q1020
EPWR - Wrocław, Dolny Śląsk, Polska
Odległość od stacji: PdZd 198km
Aktualizacja: 18-02-24 06:30
Lekki śnieg, Zamglenia, Przeważnie pochmurno
Lekki śnieg, Zamglenia, Przeważnie pochmurno
 Wiatr z PnZd
Wiatr: PnZd 22 km/h
Temperatura: -6°C
Wind Chill: -13°C
Punkt Rosy: -9°C
Wilgotność: 80%
Ciśnienie: 1025 hPa
Podsumowanie: Lekki śnieg, Zamglenia
Zachmurzenie: Przeważnie pochmurno
Widoczność: 5 km
Szczegóły o zachmurzeniu: niewielkie zachmurzenie 671 m
Częściowe zachmurzenie 1067 m
Przeważnie pochmurno 1280 m
2018/02/24 05:30 EPWR 240530Z 32012KT 5000 -SN BR FEW022 SCT035 BKN042 M06/M09 Q1025 R11/45//94
 
EPWA - Warszawa, Mazowsze, Polska
Odległość od stacji: Ws 209km
Aktualizacja: 18-02-24 06:30
Lekki śnieg, Przeważnie pochmurno
Lekki śnieg, Przeważnie pochmurno
 Wiatr z PnPnZd
Wiatr: PnPnZd 15 km/h
Temperatura: -6°C
Wind Chill: -12°C
Punkt Rosy: -7°C
Wilgotność: 93%
Ciśnienie: 1020 hPa
Podsumowanie: Light Snow
Zachmurzenie: Przeważnie pochmurno
Widoczność: 7 km
Szczegóły o zachmurzeniu: Przeważnie pochmurno 274 m
2018/02/24 05:30 EPWA 240530Z 33008KT 7000 -SN BKN009 M06/M07 Q1020 RESN R33/450295 TEMPO 5000 SN BR
EPGD - Gdańsk, Pomorze, Polska
Odległość od stacji: Pn 253km
Aktualizacja: 18-02-24 06:30
Lekki śnieg, deszczyk, Low drifting, Śnieg, Przeważnie pochmurno
Lekki śnieg, deszczyk, Low drifting, Śnieg, Przeważnie pochmurno
 Wiatr z PnWs
Wiatr: PnWs 30 km/h
Temperatura: -6°C
Wind Chill: -14°C
Punkt Rosy: -10°C
Wilgotność: 74%
Ciśnienie: 1026 hPa
Podsumowanie: Lekki śnieg, deszczyk, Low drifting, Śnieg
Zachmurzenie: Przeważnie pochmurno
Widoczność: 2 km
Szczegóły o zachmurzeniu: niewielkie zachmurzenie 122 m
Przeważnie pochmurno 579 m
2018/02/24 05:30 EPGD 240530Z 05016KT 010V080 2300 -SHSN DRSN FEW004 BKN019TCU M06/M10 Q1026 R11/590295
EPKT - Katowice, Śląsk, Polska
Odległość od stacji: Pd 270km
Aktualizacja: 18-02-24 06:30
Śnieg, Zamglenia, Przeważnie pochmurno
Śnieg, Zamglenia, Przeważnie pochmurno
 Wiatr z ZdPnZd
Wiatr: ZdPnZd 11 km/h
Temperatura: -9°C
Wind Chill: -14°C
Punkt Rosy: -11°C
Wilgotność: 86%
Ciśnienie: 1020 hPa
Podsumowanie: Śnieg, Zamglenia
Zachmurzenie: Przeważnie pochmurno
Widoczność: 1 km
Szczegóły o zachmurzeniu: niewielkie zachmurzenie 61 m
Częściowe zachmurzenie 427 m
Przeważnie pochmurno 518 m
2018/02/24 05:30 EPKT 240530Z 30006KT 1100 R27/1800D SN BR FEW002 SCT014 BKN017 M09/M11 Q1020
 
EPSC - Szczecin, Pomorze Zachodnie, Polska
Odległość od stacji: PnZd 329km
Aktualizacja: 18-02-24 06:30
Częściowe zachmurzenie
Częściowe zachmurzenie
 Wiatr z PnPnZd
Wiatr: PnPnZd 17 km/h
Temperatura: -3°C
Wind Chill: -8°C
Punkt Rosy: -11°C
Wilgotność: 54%
Ciśnienie: 1029 hPa
Zachmurzenie: Częściowe zachmurzenie
Widoczność: 10 km
Szczegóły o zachmurzeniu: niewielkie zachmurzenie 1006 m
Częściowe zachmurzenie 1341 m
2018/02/24 05:30 EPSC 240530Z 02009KT 340V050 9999 FEW033 SCT044 M03/M11 Q1029
EPBY - Bydgoszcz
Odległość od stacji: Pn 95km
Aktualizacja: 18-02-24 06:30
Lekki śnieg, Przeważnie pochmurno
Lekki śnieg, Przeważnie pochmurno
 Wiatr z Pn
Wiatr: Pn 22 km/h
Temperatura: -5°C
Wind Chill: -12°C
Punkt Rosy: -10°C
Wilgotność: 68%
Ciśnienie: 1024 hPa
Podsumowanie: Light Snow
Zachmurzenie: Przeważnie pochmurno
Widoczność: 10 km
Szczegóły o zachmurzeniu: niewielkie zachmurzenie 732 m
Przeważnie pochmurno 1219 m
2018/02/24 05:30 EPBY 240530Z 35012KT 9999 -SN FEW024 BKN040 M05/M10 Q1024
EPZG - Zielona Góra, Ziemia Lubuska, Polska
Odległość od stacji: ZdPdZa 235km
Aktualizacja: 18-02-24 06:30
Bezchmurnie
Bezchmurnie
 Wiatr z PnPnZd
Wiatr: PnPnZd 11 km/h
Temperatura: -5°C
Wind Chill: -9°C
Punkt Rosy: -6°C
Wilgotność: 93%
Ciśnienie: 1027 hPa
Podsumowanie: Bezchmurnie
Widoczność: większa niż 10 km
2018/02/24 05:30 EPZG 240530Z 33006KT 300V360 CAVOK M05/M06 Q1027